createdAt,value
2022-11-15T00:02:47.850Z,25.4
2022-11-15T00:08:21.542Z,25.4
2022-11-15T00:13:43.481Z,25.4
2022-11-15T00:19:07.328Z,25.4
2022-11-15T00:24:44.219Z,25.4
2022-11-15T00:30:06.476Z,25.4
2022-11-15T00:35:46.562Z,25.4
2022-11-15T00:41:26.405Z,25.4
2022-11-15T00:47:02.620Z,25.3
2022-11-15T00:52:10.565Z,25.3
2022-11-15T00:57:48.428Z,25.3
2022-11-15T01:03:25.715Z,25.3
2022-11-15T01:08:49.987Z,25.3
2022-11-15T01:14:27.114Z,25.3
2022-11-15T01:20:04.544Z,25.3
2022-11-15T01:25:43.208Z,25.3
2022-11-15T01:31:20.474Z,25.3
2022-11-15T01:36:57.885Z,25.2
2022-11-15T01:42:35.392Z,25.2
2022-11-15T01:47:57.038Z,25.2
2022-11-15T01:53:34.751Z,25.2
2022-11-15T01:59:12.499Z,25.2
2022-11-15T02:04:34.762Z,25.3
2022-11-15T02:15:03.123Z,25.6
2022-11-15T02:20:39.812Z,26.1
2022-11-15T02:25:46.128Z,26.7
2022-11-15T02:31:23.665Z,27.4
2022-11-15T02:37:00.073Z,28.1
2022-11-15T02:42:21.760Z,28.8
2022-11-15T02:47:59.249Z,29.6
2022-11-15T02:52:50.093Z,30.3
2022-11-15T02:58:27.153Z,30.9
2022-11-15T03:09:27.433Z,32.3
2022-11-15T03:14:48.902Z,33.1
2022-11-15T03:19:55.313Z,33.7
2022-11-15T03:36:03.105Z,35.6
2022-11-15T03:41:30.155Z,35.9
2022-11-15T03:47:07.161Z,36.1
2022-11-15T03:52:44.144Z,36.2
2022-11-15T04:03:13.020Z,36.3
2022-11-15T04:08:52.018Z,36.3
2022-11-15T04:13:57.344Z,36.3
2022-11-15T04:19:19.359Z,36.3
2022-11-15T04:24:57.735Z,36.3
2022-11-15T04:30:24.688Z,36.3
2022-11-15T04:36:02.715Z,36.3
2022-11-15T04:41:45.485Z,36.3
2022-11-15T04:47:21.546Z,36.3
2022-11-15T04:52:43.736Z,36.2
2022-11-15T05:03:54.519Z,36.2
2022-11-15T05:09:17.490Z,36.2
2022-11-15T05:20:18.675Z,36.1
2022-11-15T05:25:41.600Z,36.1
2022-11-15T05:31:19.352Z,36.1
2022-11-15T05:36:41.225Z,36.1
2022-11-15T05:42:02.919Z,36.1
2022-11-15T05:47:40.399Z,36.1
2022-11-15T05:53:21.595Z,36.1
2022-11-15T05:58:43.830Z,36
2022-11-15T06:09:29.267Z,36
2022-11-15T06:15:07.113Z,35.9
2022-11-15T06:20:35.441Z,35.9
2022-11-15T06:26:11.967Z,35.9
2022-11-15T06:31:48.916Z,35.9
2022-11-15T06:37:11.405Z,35.8
2022-11-15T06:42:48.167Z,35.8
2022-11-15T06:48:25.518Z,35.8
2022-11-15T06:54:03.420Z,35.7
2022-11-15T06:59:40.718Z,35.7
2022-11-15T07:05:18.712Z,35.6
2022-11-15T07:10:56.042Z,35.6
2022-11-15T07:16:38.413Z,35.6
2022-11-15T07:22:01.034Z,35.6
2022-11-15T07:27:24.781Z,35.6
2022-11-15T07:32:46.977Z,35.5
2022-11-15T07:38:24.870Z,35.5
2022-11-15T07:44:02.965Z,35.4
2022-11-15T08:00:35.878Z,35.4
2022-11-15T08:06:14.903Z,35.4
2022-11-15T08:11:53.183Z,35.3
2022-11-15T08:17:36.608Z,35.3
2022-11-15T08:23:14.032Z,35.3
2022-11-15T08:28:52.916Z,35.2
2022-11-15T08:34:30.721Z,35.2
2022-11-15T08:40:23.039Z,35.2
2022-11-15T08:46:02.166Z,35.1
2022-11-15T08:51:40.388Z,35.1
2022-11-15T08:57:20.099Z,35.1
2022-11-15T09:02:58.486Z,35.1
2022-11-15T09:09:05.816Z,35
2022-11-15T09:14:48.102Z,35
2022-11-15T09:20:34.458Z,34.9
2022-11-15T09:26:16.118Z,34.9
2022-11-15T09:32:28.002Z,34.9
2022-11-15T09:38:12.594Z,34.8
2022-11-15T09:43:50.214Z,34.8
2022-11-15T09:49:29.038Z,34.8
2022-11-15T09:56:14.640Z,34.8
2022-11-15T10:02:08.822Z,34.7
2022-11-15T10:13:53.741Z,34.7
2022-11-15T10:19:31.551Z,34.6
2022-11-15T10:30:37.393Z,34.6
2022-11-15T10:36:17.322Z,34.5
2022-11-15T10:43:35.402Z,34.5
2022-11-15T10:49:52.230Z,34.4
2022-11-15T10:55:34.615Z,34.4
2022-11-15T11:01:17.726Z,34.4
2022-11-15T11:07:02.509Z,34.4
2022-11-15T11:13:15.491Z,34.3
2022-11-15T11:18:53.205Z,34.3
2022-11-15T11:24:21.206Z,34.3
2022-11-15T11:29:59.844Z,34.3
2022-11-15T11:35:40.592Z,34.3
2022-11-15T11:41:03.632Z,34.1
2022-11-15T11:46:41.066Z,34.2
2022-11-15T11:52:19.236Z,34.1
2022-11-15T11:57:58.249Z,34.1
2022-11-15T12:03:42.487Z,34.1
2022-11-15T12:09:25.125Z,34.1
2022-11-15T12:15:03.552Z,34.1
2022-11-15T12:20:42.020Z,34.1
2022-11-15T12:26:17.814Z,33.9
2022-11-15T12:32:09.996Z,33.8
2022-11-15T12:37:47.558Z,33.6
2022-11-15T12:42:57.220Z,33.4
2022-11-15T12:48:04.266Z,33.4
2022-11-15T12:53:26.681Z,33.3
2022-11-15T12:59:04.560Z,33.3
2022-11-15T13:04:42.888Z,33.3
2022-11-15T13:10:21.601Z,33.3
2022-11-15T13:16:01.014Z,33.3
2022-11-15T13:21:39.253Z,33.2
2022-11-15T13:27:01.379Z,33.1
2022-11-15T13:32:22.803Z,33.2
2022-11-15T13:38:34.321Z,33.1
2022-11-15T13:44:12.198Z,33
2022-11-15T13:49:51.321Z,33
2022-11-15T13:55:33.498Z,32.9
2022-11-15T14:01:11.455Z,32.9
2022-11-15T14:06:48.561Z,32.8
2022-11-15T14:12:32.697Z,32.8
2022-11-15T14:17:54.934Z,32.8
2022-11-15T14:23:17.220Z,32.8
2022-11-15T14:28:42.903Z,32.7
2022-11-15T14:34:04.413Z,32.6
2022-11-15T14:39:41.741Z,32.6
2022-11-15T14:44:49.095Z,32.6
2022-11-15T14:50:11.645Z,32.6
2022-11-15T14:55:39.902Z,32.6
2022-11-15T15:01:08.073Z,32.6
2022-11-15T15:06:34.705Z,32.6
2022-11-15T15:12:22.654Z,32.6
2022-11-15T15:17:44.864Z,32.6
2022-11-15T15:23:16.668Z,32.6
2022-11-15T15:28:23.395Z,32.6
2022-11-15T15:33:46.590Z,32.6
2022-11-15T15:39:09.144Z,32.6
2022-11-15T15:44:33.148Z,32.6
2022-11-15T15:49:56.205Z,32.6
2022-11-15T15:55:26.342Z,32.6
2022-11-15T16:05:28.144Z,32.6
2022-11-15T16:11:04.788Z,32.6
2022-11-15T16:16:26.988Z,32.6
2022-11-15T16:21:49.964Z,32.6
2022-11-15T16:27:12.358Z,32.6
2022-11-15T16:32:36.933Z,32.6
2022-11-15T16:38:10.589Z,32.6
2022-11-15T16:43:17.359Z,32.6
2022-11-15T16:48:43.590Z,32.5
2022-11-15T16:54:06.170Z,32.6
2022-11-15T16:59:28.238Z,32.5
2022-11-15T17:04:35.612Z,32.4
2022-11-15T17:09:47.100Z,32.5
2022-11-15T17:15:09.059Z,32.4
2022-11-15T17:20:30.900Z,32.4
2022-11-15T17:25:53.057Z,32.4
2022-11-15T17:31:05.180Z,32.4
2022-11-15T17:36:27.356Z,32.4
2022-11-15T17:42:05.161Z,32.4
2022-11-15T17:47:28.031Z,32.4
2022-11-15T17:52:55.796Z,32.3
2022-11-15T17:58:33.929Z,32.3
2022-11-15T18:04:03.838Z,32.3
2022-11-15T18:09:43.084Z,32.3
2022-11-15T18:15:05.403Z,32.3
2022-11-15T18:20:47.729Z,32.2
2022-11-15T18:26:26.928Z,32.2
2022-11-15T18:37:13.278Z,32.1
2022-11-15T18:42:55.821Z,32.1
2022-11-15T18:48:19.114Z,32.1
2022-11-15T18:53:41.645Z,32.1
2022-11-15T18:59:19.378Z,32.1
2022-11-15T19:05:01.941Z,32
2022-11-15T19:10:45.093Z,32.1
2022-11-15T19:16:21.839Z,32
2022-11-15T19:22:04.353Z,31.9
2022-11-15T19:27:41.813Z,31.9
2022-11-15T19:33:21.637Z,31.8
2022-11-15T19:39:02.952Z,31.9
2022-11-15T19:50:14.600Z,31.9
2022-11-15T19:55:39.827Z,31.8
2022-11-15T20:01:17.775Z,31.8
2022-11-15T20:06:41.651Z,31.8
2022-11-15T20:12:04.314Z,31.8
2022-11-15T20:17:44.097Z,31.8
2022-11-15T20:23:23.011Z,31.8
2022-11-15T20:29:01.138Z,31.8
2022-11-15T20:34:38.788Z,31.9
2022-11-15T20:40:01.317Z,32.3
2022-11-15T20:45:44.611Z,32.8
2022-11-15T20:51:57.975Z,33.4
2022-11-15T20:57:20.553Z,34
2022-11-15T21:02:44.545Z,34.7
2022-11-15T21:08:28.256Z,35.3
2022-11-15T21:13:50.204Z,36
2022-11-15T21:19:35.459Z,36.4
2022-11-15T21:24:58.528Z,36.6
2022-11-15T21:30:36.502Z,36.7
2022-11-15T21:41:43.337Z,36.8
2022-11-15T21:47:21.213Z,36.7
2022-11-15T21:52:48.734Z,36.7
2022-11-15T21:57:39.997Z,36.7
2022-11-15T22:03:03.471Z,36.7
2022-11-15T22:08:46.441Z,36.6
2022-11-15T22:14:09.984Z,36.6
2022-11-15T22:35:59.875Z,36.4
2022-11-15T22:42:08.037Z,36.4
2022-11-15T22:47:44.862Z,36.4
2022-11-15T22:53:23.458Z,36.3
2022-11-15T23:04:17.114Z,36.3
2022-11-15T23:09:54.932Z,36.3
2022-11-15T23:15:33.484Z,36.2
2022-11-15T23:21:34.808Z,36.2
2022-11-15T23:27:12.615Z,36.2
2022-11-15T23:32:52.160Z,36.1
2022-11-15T23:38:34.892Z,36.1
2022-11-15T23:44:19.028Z,36.1
2022-11-15T23:49:57.412Z,36
2022-11-15T23:55:34.068Z,36
